European Seaway — MPDG3 — position and weather

sailwx.info

Track history (hours):
 
Tides and Currents Weather Stations Pressure Air Temp Water Temp Dewpoint Dewpoint Depression Visibility Wind Speed Wind Dir Waves Ship Positions

European Seaway

Operator: P & O Ferries

Last reported at 2015-Aug-03 14:33 UTC. Time now 2015-Aug-03 15:14 UTC.
Position N 50°58' E 001°51'.

Length 175 m; draft 6.1 m.

Type: Passenger vessel. MMSI: 232001040.

Date/timePositionNaut miles runAvg speedWind from/ knotsBaromVisibWave heightAir tempDewpointWater temp
2015-Aug-03 14:33N 50°58' E 001°51'1110.8
2015-Aug-03 13:33N 51°00' E 001°34'11 5.5
2015-Aug-03 11:34N 51°07' E 001°21'1716.7
2015-Aug-03 10:33N 50°59' E 001°44'5 4.2
2015-Aug-03 09:27N 50°58' E 001°51'1011.6
2015-Aug-03 08:33N 50°60' E 001°35'12 1.7
2015-Aug-03 01:27N 51°07' E 001°20'0 0.0
2015-Aug-03 00:29N 51°07' E 001°20'0 0.0
2015-Aug-02 23:29N 51°07' E 001°20'1313.7
2015-Aug-02 22:34N 51°03' E 001°39'9 8.9
2015-Aug-02 21:34N 50°58' E 001°51'8 8.3
2015-Aug-02 20:33N 50°58' E 001°38'1514.1
2015-Aug-02 19:31N 51°07' E 001°20'0 0.0
2015-Aug-02 17:13N 51°07' E 001°20'0 0.0
2015-Aug-02 15:13N 51°07' E 001°20'0 0.0
2015-Aug-02 14:31N 51°07' E 001°20'0 0.0
2015-Aug-02 13:25N 51°07' E 001°20'0 0.0
2015-Aug-02 12:31N 51°07' E 001°20'0 0.0
2015-Aug-02 11:31N 51°07' E 001°20'0 0.0
2015-Aug-02 03:29N 51°07' E 001°21'5 4.9
2015-Aug-02 02:33N 51°10' E 001°26'2 1.6
2015-Aug-02 01:32N 51°12' E 001°26'0 0.0
2015-Aug-02 00:33N 51°12' E 001°26'0 0.0
2015-Aug-01 23:34N 51°12' E 001°26'0 0.0
2015-Aug-01 22:34N 51°12' E 001°26'5 5.2
2015-Aug-01 21:33N 51°07' E 001°30'1312.5
2015-Aug-01 20:33N 50°58' E 001°44'4 4.1
2015-Aug-01 19:33N 50°58' E 001°51'1413.8
2015-Aug-01 18:33N 51°02' E 001°30'8 8.3
2015-Aug-01 17:33N 51°07' E 001°20'2 1.9
2015-Aug-01 16:34N 51°07' E 001°23'1717.4
2015-Aug-01 15:34N 50°58' E 001°47'3 2.5
2015-Aug-01 14:34N 50°58' E 001°51'9 9.4
2015-Aug-01 13:33N 51°00' E 001°36'1212.0
2015-Aug-01 12:31N 51°07' E 001°20'0 0.2
2015-Aug-01 11:33N 51°07' E 001°20'1616.0
2015-Aug-01 10:34N 50°60' E 001°42'6 5.4
2015-Aug-01 09:31N 50°58' E 001°51'7 7.1
2015-Aug-01 08:33N 50°59' E 001°40'15 6.9
2015-Aug-01 06:20N 51°07' E 001°20'0 0.0
2015-Aug-01 03:16N 51°07' E 001°20'810.8
2015-Aug-01 02:33N 51°05' E 001°32'1414.0
2015-Aug-01 01:33N 50°58' E 001°51'0 0.5
2015-Aug-01 00:33N 50°58' E 001°50'1817.7
2015-Jul-31 23:33N 51°05' E 001°24'4 2.7
2015-Jul-31 22:13N 51°07' E 001°20'710.8
2015-Jul-31 21:33N 51°03' E 001°29'1514.6
2015-Jul-31 20:33N 50°58' E 001°51'3 2.8
2015-Jul-31 19:33N 50°58' E 001°46'1615.8
2015-Jul-31 18:33N 51°05' E 001°24'3 3.2
2015-Jul-31 17:29N 51°07' E 001°20'1010.6
2015-Jul-31 16:33N 51°03' E 001°34'1211.8
2015-Jul-31 15:33N 50°58' E 001°51'6 6.4
2015-Jul-31 14:33N 50°59' E 001°41'15 7.6
2015-Jul-31 12:32N 51°07' E 001°20'1515.4
2015-Jul-31 11:33N 50°60' E 001°41'7 6.4
2015-Jul-31 10:32N 50°58' E 001°51'1312.8
2015-Jul-31 09:33N 51°02' E 001°32'9 6.7
2015-Jul-31 08:12N 51°07' E 001°20'711.5
2015-Jul-31 07:33N 51°04' E 001°31'1414.1
2015-Jul-31 06:33N 50°58' E 001°51'4 4.1
2015-Jul-31 05:34N 50°58' E 001°44'1716.9
2015-Jul-31 04:33N 51°07' E 001°21'1 0.7
2015-Jul-31 03:04N 51°07' E 001°20'713.6
2015-Jul-31 02:33N 51°05' E 001°31'1414.4
2015-Jul-31 01:33N 50°58' E 001°51'2 1.8
2015-Jul-31 00:33N 50°58' E 001°48'1818.1
2015-Jul-30 23:33N 51°06' E 001°22'2 1.2
2015-Jul-30 22:09N 51°07' E 001°20'611.1
2015-Jul-30 21:34N 51°05' E 001°30'1515.0
2015-Jul-30 20:34N 50°58' E 001°51'0 0.1
2015-Jul-30 19:33N 50°58' E 001°51'1515.0
2015-Jul-30 18:33N 51°04' E 001°29'7 5.9
2015-Jul-30 17:27N 51°07' E 001°20'6 7.0
2015-Jul-30 16:33N 51°05' E 001°30'1515.2
2015-Jul-30 15:33N 50°58' E 001°51'0 0.1
2015-Jul-30 14:32N 50°58' E 001°51'1414.5
2015-Jul-30 13:34N 51°03' E 001°30'5 2.4
2015-Jul-30 11:34N 51°07' E 001°25'1616.3
2015-Jul-30 10:33N 50°58' E 001°47'2 2.1
2015-Jul-30 09:32N 50°58' E 001°51'9 8.8
2015-Jul-30 08:34N 50°60' E 001°38'13 4.4
2015-Jul-30 05:33N 51°07' E 001°20'1716.8
2015-Jul-30 04:33N 50°59' E 001°43'5 4.9
2015-Jul-30 03:31N 50°58' E 001°51'7 7.1
2015-Jul-30 02:34N 50°59' E 001°40'15 6.4
2015-Jul-30 00:10N 51°07' E 001°20'813.1
2015-Jul-29 23:34N 51°05' E 001°32'1312.4
2015-Jul-29 22:29N 50°58' E 001°51'0 0.1
2015-Jul-29 21:33N 50°58' E 001°51'9 9.2
2015-Jul-29 20:33N 50°56' E 001°37'5 5.3
2015-Jul-29 19:33N 51°01' E 001°34'9 3.1
2015-Jul-29 16:34N 51°07' E 001°23'1817.8
2015-Jul-29 15:33N 50°58' E 001°47'2 2.1
2015-Jul-29 14:29N 50°58' E 001°51'1212.7
2015-Jul-29 13:33N 51°02' E 001°33'9 4.5
2015-Jul-29 11:33N 51°07' E 001°22'1716.7
2015-Jul-29 10:34N 50°58' E 001°44'4 4.1
2015-Jul-29 09:33N 50°58' E 001°51'5 5.3
2015-Jul-29 08:33N 50°59' E 001°43'16 4.0
2015-Jul-29 04:33N 51°06' E 001°20'1717.3
2015-Jul-29 03:33N 50°58' E 001°45'4 4.0
2015-Jul-29 02:34N 50°58' E 001°51'1010.4
2015-Jul-29 01:34N 51°00' E 001°35'1211.6
2015-Jul-29 00:33N 51°07' E 001°20'4 4.2
2015-Jul-28 23:34N 51°06' E 001°26'1615.8
2015-Jul-28 22:33N 50°58' E 001°48'2 1.6
2015-Jul-28 21:33N 50°58' E 001°51'5 5.2
2015-Jul-28 20:33N 50°58' E 001°43'8 8.5
2015-Jul-28 19:34N 51°02' E 001°30'9 3.5
2015-Jul-28 17:04N 51°07' E 001°20'3 6.2
2015-Jul-28 16:33N 51°07' E 001°25'1515.2
2015-Jul-28 15:33N 50°58' E 001°45'4 3.7
2015-Jul-28 14:33N 50°58' E 001°51'10 9.6
2015-Jul-28 13:33N 51°00' E 001°36'11 5.2
2015-Jul-28 11:27N 51°07' E 001°23'1415.6
2015-Jul-28 10:34N 50°60' E 001°41'6 6.2
2015-Jul-28 09:33N 50°58' E 001°51'9 8.7
2015-Jul-28 08:34N 50°60' E 001°37'13 3.2
2015-Jul-28 04:29N 51°07' E 001°20'1314.1
2015-Jul-28 03:33N 51°01' E 001°38'8 8.3
2015-Jul-28 02:33N 50°58' E 001°51'6 5.8
2015-Jul-28 01:33N 50°58' E 001°42'16 6.9
2015-Jul-27 23:12N 51°07' E 001°20'813.2
2015-Jul-27 22:33N 51°04' E 001°32'1312.8
2015-Jul-27 21:33N 50°58' E 001°51'0 0.0
2015-Jul-27 20:33N 50°58' E 001°51'1514.8
2015-Jul-27 19:34N 51°03' E 001°29'6 3.0
2015-Jul-27 17:33N 51°07' E 001°22'1514.7
2015-Jul-27 16:33N 50°60' E 001°42'6 5.7
2015-Jul-27 15:31N 50°58' E 001°51'9 9.6
2015-Jul-27 14:34N 50°60' E 001°37'13 9.8
2015-Jul-27 13:14N 51°07' E 001°20'1 1.3
2015-Jul-27 12:33N 51°07' E 001°21'5 4.9
2015-Jul-27 11:33N 51°05' E 001°29'1413.5
2015-Jul-27 10:33N 50°58' E 001°47'3 2.5
2015-Jul-27 09:32N 50°58' E 001°51'1210.6
2015-Jul-27 08:23N 51°02' E 001°32'9 1.0
2015-Jul-26 23:21N 51°07' E 001°20'911.9
2015-Jul-26 22:33N 51°04' E 001°34'1212.0
2015-Jul-26 21:33N 50°58' E 001°51'0 0.0
2015-Jul-26 20:33N 50°58' E 001°51'1 0.7
2015-Jul-26 19:33N 50°58' E 001°50'1616.2
2015-Jul-26 18:34N 51°06' E 001°27'5 2.2
2015-Jul-26 16:28N 51°07' E 001°20'1516.0
2015-Jul-26 15:33N 51°01' E 001°41'7 6.8
2015-Jul-26 14:33N 50°58' E 001°51'8 7.9
2015-Jul-26 13:34N 50°59' E 001°39'14 6.7
2015-Jul-26 11:33N 51°07' E 001°21'1616.2
2015-Jul-26 10:34N 50°59' E 001°43'5 5.2
2015-Jul-26 09:33N 50°58' E 001°51'9 8.8
2015-Jul-26 08:33N 50°60' E 001°37'13 3.2
2015-Jul-26 04:32N 51°07' E 001°20'1010.6
2015-Jul-26 03:34N 51°02' E 001°35'1111.2
2015-Jul-26 02:33N 50°58' E 001°51'2 1.7
2015-Jul-26 01:33N 50°58' E 001°48'1615.6
2015-Jul-26 00:33N 51°06' E 001°27'1 0.5
2015-Jul-25 22:34N 51°07' E 001°27'1615.9
2015-Jul-25 21:33N 50°58' E 001°48'2 1.6
2015-Jul-25 20:33N 50°58' E 001°51'1313.1
2015-Jul-25 19:33N 51°03' E 001°31'8 3.6
2015-Jul-25 17:13N 51°07' E 001°20'812.7
2015-Jul-25 16:33N 51°04' E 001°32'1312.8
2015-Jul-25 15:32N 50°58' E 001°51'4 3.6
2015-Jul-25 14:34N 50°58' E 001°45'1615.9
2015-Jul-25 13:33N 51°06' E 001°23'3 2.2
2015-Jul-25 12:24N 51°07' E 001°20'1011.5
2015-Jul-25 11:33N 51°03' E 001°34'1211.8
2015-Jul-25 10:33N 50°58' E 001°51'0 0.2
2015-Jul-25 09:33N 50°58' E 001°51'1313.5
2015-Jul-25 08:33N 51°03' E 001°31'8 3.7
2015-Jul-25 06:27N 51°07' E 001°20'7 8.0
2015-Jul-25 05:33N 51°05' E 001°31'1313.5
2015-Jul-25 04:33N 50°58' E 001°50'1 0.9
2015-Jul-25 03:33N 50°58' E 001°51'4 4.0
2015-Jul-25 02:33N 50°58' E 001°45'1312.6
2015-Jul-25 01:33N 51°04' E 001°27'5 1.5
2015-Jul-24 22:33N 51°07' E 001°22'1413.8
2015-Jul-24 21:33N 50°60' E 001°41'7 6.7
2015-Jul-24 20:34N 50°58' E 001°51'6 5.9
2015-Jul-24 19:33N 50°58' E 001°42'1616.2
2015-Jul-24 18:33N 51°07' E 001°20'1 0.6
2015-Jul-24 17:22N 51°07' E 001°20'1114.0
2015-Jul-24 16:33N 51°04' E 001°38'1010.2
2015-Jul-24 15:32N 50°58' E 001°51'1 0.8
2015-Jul-24 14:33N 50°58' E 001°50'  
Track history (hours):
 
Tides and Currents Weather Stations Pressure Air Temp Water Temp Dewpoint Dewpoint Depression Visibility Wind Speed Wind Dir Waves Ship Positions

European Seaway

Operator: P & O Ferries

Last reported at 2015-Aug-03 14:33 UTC. Time now 2015-Aug-03 15:14 UTC.
Position N 50°58' E 001°51'.

Length 175 m; draft 6.1 m.

Type: Passenger vessel. MMSI: 232001040.

Date/timePositionNaut miles runAvg speedWind from/ knotsBaromVisibWave heightAir tempDewpointWater temp
2015-Aug-03 14:33N 50°58' E 001°51'1110.8
2015-Aug-03 13:33N 51°00' E 001°34'11 5.5
2015-Aug-03 11:34N 51°07' E 001°21'1716.7
2015-Aug-03 10:33N 50°59' E 001°44'5 4.2
2015-Aug-03 09:27N 50°58' E 001°51'1011.6
2015-Aug-03 08:33N 50°60' E 001°35'12 1.7
2015-Aug-03 01:27N 51°07' E 001°20'0 0.0
2015-Aug-03 00:29N 51°07' E 001°20'0 0.0
2015-Aug-02 23:29N 51°07' E 001°20'1313.7
2015-Aug-02 22:34N 51°03' E 001°39'9 8.9
2015-Aug-02 21:34N 50°58' E 001°51'8 8.3
2015-Aug-02 20:33N 50°58' E 001°38'1514.1
2015-Aug-02 19:31N 51°07' E 001°20'0 0.0
2015-Aug-02 17:13N 51°07' E 001°20'0 0.0
2015-Aug-02 15:13N 51°07' E 001°20'0 0.0
2015-Aug-02 14:31N 51°07' E 001°20'0 0.0
2015-Aug-02 13:25N 51°07' E 001°20'0 0.0
2015-Aug-02 12:31N 51°07' E 001°20'0 0.0
2015-Aug-02 11:31N 51°07' E 001°20'0 0.0
2015-Aug-02 03:29N 51°07' E 001°21'5 4.9
2015-Aug-02 02:33N 51°10' E 001°26'2 1.6
2015-Aug-02 01:32N 51°12' E 001°26'0 0.0
2015-Aug-02 00:33N 51°12' E 001°26'0 0.0
2015-Aug-01 23:34N 51°12' E 001°26'0 0.0
2015-Aug-01 22:34N 51°12' E 001°26'5 5.2
2015-Aug-01 21:33N 51°07' E 001°30'1312.5
2015-Aug-01 20:33N 50°58' E 001°44'4 4.1
2015-Aug-01 19:33N 50°58' E 001°51'1413.8
2015-Aug-01 18:33N 51°02' E 001°30'8 8.3
2015-Aug-01 17:33N 51°07' E 001°20'2 1.9
2015-Aug-01 16:34N 51°07' E 001°23'1717.4
2015-Aug-01 15:34N 50°58' E 001°47'3 2.5
2015-Aug-01 14:34N 50°58' E 001°51'9 9.4
2015-Aug-01 13:33N 51°00' E 001°36'1212.0
2015-Aug-01 12:31N 51°07' E 001°20'0 0.2
2015-Aug-01 11:33N 51°07' E 001°20'1616.0
2015-Aug-01 10:34N 50°60' E 001°42'6 5.4
2015-Aug-01 09:31N 50°58' E 001°51'7 7.1
2015-Aug-01 08:33N 50°59' E 001°40'15 6.9
2015-Aug-01 06:20N 51°07' E 001°20'0 0.0
2015-Aug-01 03:16N 51°07' E 001°20'810.8
2015-Aug-01 02:33N 51°05' E 001°32'1414.0
2015-Aug-01 01:33N 50°58' E 001°51'0 0.5
2015-Aug-01 00:33N 50°58' E 001°50'1817.7
2015-Jul-31 23:33N 51°05' E 001°24'4 2.7
2015-Jul-31 22:13N 51°07' E 001°20'710.8
2015-Jul-31 21:33N 51°03' E 001°29'1514.6
2015-Jul-31 20:33N 50°58' E 001°51'3 2.8
2015-Jul-31 19:33N 50°58' E 001°46'1615.8
2015-Jul-31 18:33N 51°05' E 001°24'3 3.2
2015-Jul-31 17:29N 51°07' E 001°20'1010.6
2015-Jul-31 16:33N 51°03' E 001°34'1211.8
2015-Jul-31 15:33N 50°58' E 001°51'6 6.4
2015-Jul-31 14:33N 50°59' E 001°41'15 7.6
2015-Jul-31 12:32N 51°07' E 001°20'1515.4
2015-Jul-31 11:33N 50°60' E 001°41'7 6.4
2015-Jul-31 10:32N 50°58' E 001°51'1312.8
2015-Jul-31 09:33N 51°02' E 001°32'9 6.7
2015-Jul-31 08:12N 51°07' E 001°20'711.5
2015-Jul-31 07:33N 51°04' E 001°31'1414.1
2015-Jul-31 06:33N 50°58' E 001°51'4 4.1
2015-Jul-31 05:34N 50°58' E 001°44'1716.9
2015-Jul-31 04:33N 51°07' E 001°21'1 0.7
2015-Jul-31 03:04N 51°07' E 001°20'713.6
2015-Jul-31 02:33N 51°05' E 001°31'1414.4
2015-Jul-31 01:33N 50°58' E 001°51'2 1.8
2015-Jul-31 00:33N 50°58' E 001°48'1818.1
2015-Jul-30 23:33N 51°06' E 001°22'2 1.2
2015-Jul-30 22:09N 51°07' E 001°20'611.1
2015-Jul-30 21:34N 51°05' E 001°30'1515.0
2015-Jul-30 20:34N 50°58' E 001°51'0 0.1
2015-Jul-30 19:33N 50°58' E 001°51'1515.0
2015-Jul-30 18:33N 51°04' E 001°29'7 5.9
2015-Jul-30 17:27N 51°07' E 001°20'6 7.0
2015-Jul-30 16:33N 51°05' E 001°30'1515.2
2015-Jul-30 15:33N 50°58' E 001°51'0 0.1
2015-Jul-30 14:32N 50°58' E 001°51'1414.5
2015-Jul-30 13:34N 51°03' E 001°30'5 2.4
2015-Jul-30 11:34N 51°07' E 001°25'1616.3
2015-Jul-30 10:33N 50°58' E 001°47'2 2.1
2015-Jul-30 09:32N 50°58' E 001°51'9 8.8
2015-Jul-30 08:34N 50°60' E 001°38'13 4.4
2015-Jul-30 05:33N 51°07' E 001°20'1716.8
2015-Jul-30 04:33N 50°59' E 001°43'5 4.9
2015-Jul-30 03:31N 50°58' E 001°51'7 7.1
2015-Jul-30 02:34N 50°59' E 001°40'15 6.4
2015-Jul-30 00:10N 51°07' E 001°20'813.1
2015-Jul-29 23:34N 51°05' E 001°32'1312.4
2015-Jul-29 22:29N 50°58' E 001°51'0 0.1
2015-Jul-29 21:33N 50°58' E 001°51'9 9.2
2015-Jul-29 20:33N 50°56' E 001°37'5 5.3
2015-Jul-29 19:33N 51°01' E 001°34'9 3.1
2015-Jul-29 16:34N 51°07' E 001°23'1817.8
2015-Jul-29 15:33N 50°58' E 001°47'2 2.1
2015-Jul-29 14:29N 50°58' E 001°51'1212.7
2015-Jul-29 13:33N 51°02' E 001°33'9 4.5
2015-Jul-29 11:33N 51°07' E 001°22'1716.7
2015-Jul-29 10:34N 50°58' E 001°44'4 4.1
2015-Jul-29 09:33N 50°58' E 001°51'5 5.3
2015-Jul-29 08:33N 50°59' E 001°43'16 4.0
2015-Jul-29 04:33N 51°06' E 001°20'1717.3
2015-Jul-29 03:33N 50°58' E 001°45'4 4.0
2015-Jul-29 02:34N 50°58' E 001°51'1010.4
2015-Jul-29 01:34N 51°00' E 001°35'1211.6
2015-Jul-29 00:33N 51°07' E 001°20'4 4.2
2015-Jul-28 23:34N 51°06' E 001°26'1615.8
2015-Jul-28 22:33N 50°58' E 001°48'2 1.6
2015-Jul-28 21:33N 50°58' E 001°51'5 5.2
2015-Jul-28 20:33N 50°58' E 001°43'8 8.5
2015-Jul-28 19:34N 51°02' E 001°30'9 3.5
2015-Jul-28 17:04N 51°07' E 001°20'3 6.2
2015-Jul-28 16:33N 51°07' E 001°25'1515.2
2015-Jul-28 15:33N 50°58' E 001°45'4 3.7
2015-Jul-28 14:33N 50°58' E 001°51'10 9.6
2015-Jul-28 13:33N 51°00' E 001°36'11 5.2
2015-Jul-28 11:27N 51°07' E 001°23'1415.6
2015-Jul-28 10:34N 50°60' E 001°41'6 6.2
2015-Jul-28 09:33N 50°58' E 001°51'9 8.7
2015-Jul-28 08:34N 50°60' E 001°37'13 3.2
2015-Jul-28 04:29N 51°07' E 001°20'1314.1
2015-Jul-28 03:33N 51°01' E 001°38'8 8.3
2015-Jul-28 02:33N 50°58' E 001°51'6 5.8
2015-Jul-28 01:33N 50°58' E 001°42'16 6.9
2015-Jul-27 23:12N 51°07' E 001°20'813.2
2015-Jul-27 22:33N 51°04' E 001°32'1312.8
2015-Jul-27 21:33N 50°58' E 001°51'0 0.0
2015-Jul-27 20:33N 50°58' E 001°51'1514.8
2015-Jul-27 19:34N 51°03' E 001°29'6 3.0
2015-Jul-27 17:33N 51°07' E 001°22'1514.7
2015-Jul-27 16:33N 50°60' E 001°42'6 5.7
2015-Jul-27 15:31N 50°58' E 001°51'9 9.6
2015-Jul-27 14:34N 50°60' E 001°37'13 9.8
2015-Jul-27 13:14N 51°07' E 001°20'1 1.3
2015-Jul-27 12:33N 51°07' E 001°21'5 4.9
2015-Jul-27 11:33N 51°05' E 001°29'1413.5
2015-Jul-27 10:33N 50°58' E 001°47'3 2.5
2015-Jul-27 09:32N 50°58' E 001°51'1210.6
2015-Jul-27 08:23N 51°02' E 001°32'9 1.0
2015-Jul-26 23:21N 51°07' E 001°20'911.9
2015-Jul-26 22:33N 51°04' E 001°34'1212.0
2015-Jul-26 21:33N 50°58' E 001°51'0 0.0
2015-Jul-26 20:33N 50°58' E 001°51'1 0.7
2015-Jul-26 19:33N 50°58' E 001°50'1616.2
2015-Jul-26 18:34N 51°06' E 001°27'5 2.2
2015-Jul-26 16:28N 51°07' E 001°20'1516.0
2015-Jul-26 15:33N 51°01' E 001°41'7 6.8
2015-Jul-26 14:33N 50°58' E 001°51'8 7.9
2015-Jul-26 13:34N 50°59' E 001°39'14 6.7
2015-Jul-26 11:33N 51°07' E 001°21'1616.2
2015-Jul-26 10:34N 50°59' E 001°43'5 5.2
2015-Jul-26 09:33N 50°58' E 001°51'9 8.8
2015-Jul-26 08:33N 50°60' E 001°37'13 3.2
2015-Jul-26 04:32N 51°07' E 001°20'1010.6
2015-Jul-26 03:34N 51°02' E 001°35'1111.2
2015-Jul-26 02:33N 50°58' E 001°51'2 1.7
2015-Jul-26 01:33N 50°58' E 001°48'1615.6
2015-Jul-26 00:33N 51°06' E 001°27'1 0.5
2015-Jul-25 22:34N 51°07' E 001°27'1615.9
2015-Jul-25 21:33N 50°58' E 001°48'2 1.6
2015-Jul-25 20:33N 50°58' E 001°51'1313.1
2015-Jul-25 19:33N 51°03' E 001°31'8 3.6
2015-Jul-25 17:13N 51°07' E 001°20'812.7
2015-Jul-25 16:33N 51°04' E 001°32'1312.8
2015-Jul-25 15:32N 50°58' E 001°51'4 3.6
2015-Jul-25 14:34N 50°58' E 001°45'1615.9
2015-Jul-25 13:33N 51°06' E 001°23'3 2.2
2015-Jul-25 12:24N 51°07' E 001°20'1011.5
2015-Jul-25 11:33N 51°03' E 001°34'1211.8
2015-Jul-25 10:33N 50°58' E 001°51'0 0.2
2015-Jul-25 09:33N 50°58' E 001°51'1313.5
2015-Jul-25 08:33N 51°03' E 001°31'8 3.7
2015-Jul-25 06:27N 51°07' E 001°20'7 8.0
2015-Jul-25 05:33N 51°05' E 001°31'1313.5
2015-Jul-25 04:33N 50°58' E 001°50'1 0.9
2015-Jul-25 03:33N 50°58' E 001°51'4 4.0
2015-Jul-25 02:33N 50°58' E 001°45'1312.6
2015-Jul-25 01:33N 51°04' E 001°27'5 1.5
2015-Jul-24 22:33N 51°07' E 001°22'1413.8
2015-Jul-24 21:33N 50°60' E 001°41'7 6.7
2015-Jul-24 20:34N 50°58' E 001°51'6 5.9
2015-Jul-24 19:33N 50°58' E 001°42'1616.2
2015-Jul-24 18:33N 51°07' E 001°20'1 0.6
2015-Jul-24 17:22N 51°07' E 001°20'1114.0
2015-Jul-24 16:33N 51°04' E 001°38'1010.2
2015-Jul-24 15:32N 50°58' E 001°51'1 0.8
2015-Jul-24 14:33N 50°58' E 001°50'  

Dump ship's entire track history